createdAt,value
2022-11-16T00:01:13.846Z,100.00
2022-11-16T00:03:43.561Z,100.00
2022-11-16T00:06:14.672Z,100.00
2022-11-16T00:09:11.140Z,100.00
2022-11-16T00:11:39.947Z,100.00
2022-11-16T00:14:09.267Z,100.00
2022-11-16T00:16:38.551Z,100.00
2022-11-16T00:19:08.627Z,100.00
2022-11-16T00:21:37.469Z,100.00
2022-11-16T00:24:07.170Z,100.00
2022-11-16T00:26:35.752Z,100.00
2022-11-16T00:29:04.312Z,100.00
2022-11-16T00:31:33.061Z,100.00
2022-11-16T00:34:01.699Z,100.00
2022-11-16T00:36:30.718Z,100.00
2022-11-16T00:38:59.331Z,100.00
2022-11-16T00:41:27.944Z,100.00
2022-11-16T00:43:56.582Z,100.00
2022-11-16T00:46:25.339Z,99.98
2022-11-16T00:48:54.510Z,100.00
2022-11-16T00:51:23.156Z,100.00
2022-11-16T00:53:51.889Z,100.00
2022-11-16T00:56:20.889Z,100.00
2022-11-16T00:58:50.712Z,99.98
2022-11-16T01:01:19.614Z,100.00
2022-11-16T01:03:48.202Z,99.94
2022-11-16T01:06:17.883Z,100.00
2022-11-16T01:08:46.814Z,100.00
2022-11-16T01:11:36.813Z,100.00
2022-11-16T01:14:09.672Z,100.00
2022-11-16T01:16:38.655Z,99.80
2022-11-16T01:19:08.158Z,100.00
2022-11-16T01:21:36.976Z,100.00
2022-11-16T01:24:06.554Z,100.00
2022-11-16T01:26:35.235Z,99.94
2022-11-16T01:29:04.443Z,99.75
2022-11-16T01:31:37.021Z,99.42
2022-11-16T01:34:06.792Z,99.06
2022-11-16T01:36:37.048Z,99.23
2022-11-16T01:39:06.465Z,99.42
2022-11-16T01:42:28.535Z,99.50
2022-11-16T01:45:47.419Z,99.29
2022-11-16T01:48:28.093Z,99.56
2022-11-16T01:50:58.286Z,100.00
2022-11-16T01:53:27.270Z,99.83
2022-11-16T01:55:58.224Z,99.95
2022-11-16T01:58:51.916Z,99.96
2022-11-16T02:01:26.908Z,99.89
2022-11-16T02:03:57.055Z,99.75
2022-11-16T02:06:40.975Z,99.38
2022-11-16T02:09:52.165Z,99.53
2022-11-16T02:12:43.764Z,99.69
2022-11-16T02:15:48.344Z,99.26
2022-11-16T02:18:33.344Z,99.34
2022-11-16T02:21:29.413Z,99.78
2022-11-16T02:24:43.792Z,99.92
2022-11-16T02:27:45.088Z,99.60
2022-11-16T02:30:14.448Z,98.94
2022-11-16T02:32:56.763Z,99.06
2022-11-16T02:35:52.794Z,98.80
2022-11-16T02:38:34.221Z,96.81
2022-11-16T02:41:10.965Z,96.90
2022-11-16T02:43:48.793Z,97.56
2022-11-16T02:46:25.700Z,98.21
2022-11-16T02:49:01.444Z,97.90
2022-11-16T02:51:31.677Z,98.08
2022-11-16T02:54:22.910Z,98.40
2022-11-16T02:57:05.572Z,98.52
2022-11-16T02:59:58.738Z,98.30
2022-11-16T03:02:48.326Z,98.35
2022-11-16T03:05:36.146Z,98.62
2022-11-16T03:08:38.637Z,98.89
2022-11-16T03:11:28.829Z,99.34
2022-11-16T03:14:07.888Z,99.04
2022-11-16T03:16:46.359Z,99.50
2022-11-16T03:19:25.102Z,99.75
2022-11-16T03:22:11.906Z,99.67
2022-11-16T03:24:42.015Z,99.74
2022-11-16T03:27:13.885Z,99.59
2022-11-16T03:30:23.821Z,99.99
2022-11-16T03:33:29.574Z,99.39
2022-11-16T03:36:16.419Z,99.66
2022-11-16T03:38:48.101Z,98.81
2022-11-16T03:41:19.044Z,96.01
2022-11-16T03:43:49.832Z,95.03
2022-11-16T03:46:20.576Z,94.20
2022-11-16T03:48:49.357Z,94.27
2022-11-16T03:51:25.893Z,94.55
2022-11-16T03:53:55.674Z,95.05
2022-11-16T03:56:24.339Z,95.29
2022-11-16T03:58:53.000Z,95.67
2022-11-16T04:01:21.605Z,95.93
2022-11-16T04:03:50.728Z,96.43
2022-11-16T04:06:39.212Z,96.69
2022-11-16T04:09:10.913Z,97.13
2022-11-16T04:11:58.407Z,97.39
2022-11-16T04:14:46.857Z,97.64
2022-11-16T04:17:38.459Z,98.66
2022-11-16T04:20:28.687Z,99.61
2022-11-16T04:23:27.897Z,99.96
2022-11-16T04:25:57.657Z,100.00
2022-11-16T04:28:31.263Z,99.99
2022-11-16T04:31:23.573Z,99.99
2022-11-16T04:34:30.297Z,100.00
2022-11-16T04:37:17.520Z,100.00
2022-11-16T04:39:46.876Z,100.00
2022-11-16T04:42:20.023Z,99.75
2022-11-16T04:45:09.766Z,99.64
2022-11-16T04:47:52.054Z,99.86
2022-11-16T04:50:22.463Z,99.81
2022-11-16T04:52:51.738Z,99.55
2022-11-16T04:55:20.505Z,99.48
2022-11-16T04:57:49.701Z,99.46
2022-11-16T05:00:19.686Z,99.13
2022-11-16T05:02:48.579Z,99.11
2022-11-16T05:05:17.944Z,99.13
2022-11-16T05:07:48.212Z,99.43
2022-11-16T05:10:25.546Z,99.43
2022-11-16T05:12:54.572Z,99.41
2022-11-16T05:15:23.549Z,99.34
2022-11-16T05:17:55.120Z,99.23
2022-11-16T05:20:44.703Z,99.35
2022-11-16T05:23:33.329Z,99.21
2022-11-16T05:26:06.756Z,99.06
2022-11-16T05:28:35.766Z,99.20
2022-11-16T05:31:04.995Z,98.76
2022-11-16T05:33:33.761Z,98.93
2022-11-16T05:36:02.480Z,98.95
2022-11-16T05:38:31.422Z,99.14
2022-11-16T05:41:01.196Z,99.15
2022-11-16T05:43:30.289Z,99.00
2022-11-16T05:46:33.277Z,99.10
2022-11-16T05:49:02.189Z,99.04
2022-11-16T05:51:31.791Z,98.67
2022-11-16T05:54:01.803Z,98.41
2022-11-16T05:56:31.378Z,98.43
2022-11-16T05:59:00.833Z,98.17
2022-11-16T06:01:29.655Z,97.72
2022-11-16T06:04:02.935Z,97.62
2022-11-16T06:06:31.909Z,97.36
2022-11-16T06:09:00.820Z,97.66
2022-11-16T06:11:34.435Z,97.42
2022-11-16T06:14:05.601Z,97.10
2022-11-16T06:16:34.819Z,96.98
2022-11-16T06:19:07.869Z,97.10
2022-11-16T06:21:38.180Z,97.08
2022-11-16T06:24:10.632Z,96.97
2022-11-16T06:26:39.452Z,97.19
2022-11-16T06:29:08.217Z,97.01
2022-11-16T06:31:37.393Z,96.91
2022-11-16T06:34:06.150Z,97.51
2022-11-16T06:36:35.443Z,97.51
2022-11-16T06:39:04.817Z,97.08
2022-11-16T06:41:41.044Z,96.79
2022-11-16T06:44:10.863Z,96.83
2022-11-16T06:46:42.604Z,96.30
2022-11-16T06:49:11.671Z,96.67
2022-11-16T06:51:40.525Z,96.70
2022-11-16T06:54:10.184Z,96.50
2022-11-16T06:56:39.049Z,97.00
2022-11-16T06:59:09.360Z,96.62
2022-11-16T07:01:38.972Z,96.68
2022-11-16T07:04:16.188Z,96.68
2022-11-16T07:06:50.016Z,95.60
2022-11-16T07:09:19.094Z,95.71
2022-11-16T07:11:48.469Z,95.54
2022-11-16T07:14:17.782Z,95.67
2022-11-16T07:16:46.673Z,95.14
2022-11-16T07:19:16.983Z,95.52
2022-11-16T07:21:45.810Z,95.11
2022-11-16T07:24:17.081Z,95.06
2022-11-16T07:26:45.746Z,95.79
2022-11-16T07:29:18.183Z,95.40
2022-11-16T07:32:05.488Z,95.09
2022-11-16T07:34:54.139Z,94.88
2022-11-16T07:37:22.973Z,94.99
2022-11-16T07:39:52.832Z,94.89
2022-11-16T07:42:22.174Z,94.34
2022-11-16T07:45:43.788Z,93.86
2022-11-16T07:48:12.981Z,93.95
2022-11-16T07:51:09.323Z,93.94
2022-11-16T07:53:41.715Z,93.54
2022-11-16T07:56:12.049Z,93.35
2022-11-16T07:58:41.968Z,95.03
2022-11-16T08:01:19.164Z,93.38
2022-11-16T08:03:48.386Z,91.12
2022-11-16T08:06:26.920Z,91.10
2022-11-16T08:08:58.803Z,90.25
2022-11-16T08:11:27.950Z,92.26
2022-11-16T08:13:57.923Z,89.71
2022-11-16T08:16:26.711Z,88.50
2022-11-16T08:19:02.564Z,90.21
2022-11-16T08:21:31.289Z,91.78
2022-11-16T08:24:00.056Z,89.68
2022-11-16T08:26:29.205Z,89.97
2022-11-16T08:29:06.690Z,89.50
2022-11-16T08:31:37.440Z,89.91
2022-11-16T08:34:13.229Z,90.37
2022-11-16T08:36:44.599Z,88.90
2022-11-16T08:39:13.966Z,89.03
2022-11-16T08:41:44.525Z,87.90
2022-11-16T08:44:14.590Z,89.71
2022-11-16T08:46:45.517Z,88.05
2022-11-16T08:50:04.775Z,91.39
2022-11-16T08:52:35.367Z,86.95
2022-11-16T08:55:07.758Z,87.67
2022-11-16T08:57:37.369Z,84.99
2022-11-16T09:00:11.478Z,84.54
2022-11-16T09:02:40.981Z,84.82
2022-11-16T09:05:12.272Z,82.58
2022-11-16T09:07:44.332Z,81.98
2022-11-16T09:10:14.365Z,82.09
2022-11-16T09:12:42.993Z,83.61
2022-11-16T09:15:11.910Z,82.82
2022-11-16T09:17:40.552Z,83.14
2022-11-16T09:20:09.734Z,82.53
2022-11-16T09:22:38.493Z,80.92
2022-11-16T09:25:09.592Z,81.73
2022-11-16T09:27:38.408Z,80.67
2022-11-16T09:30:09.557Z,80.56
2022-11-16T09:32:38.518Z,80.18
2022-11-16T09:35:07.695Z,80.15
2022-11-16T09:37:36.336Z,79.90
2022-11-16T09:40:06.329Z,80.03
2022-11-16T09:43:06.680Z,80.03
2022-11-16T09:46:08.086Z,77.85
2022-11-16T09:48:39.251Z,79.72
2022-11-16T09:51:14.224Z,79.87
2022-11-16T09:53:49.040Z,79.77
2022-11-16T09:56:26.330Z,81.02
2022-11-16T09:59:06.239Z,82.96
2022-11-16T10:01:56.247Z,83.40
2022-11-16T10:04:58.654Z,83.51
2022-11-16T10:07:42.373Z,83.64
2022-11-16T10:10:37.982Z,83.17
2022-11-16T10:13:43.901Z,83.82
2022-11-16T10:16:59.214Z,86.14
2022-11-16T10:19:47.896Z,84.40
2022-11-16T10:22:46.231Z,86.57
2022-11-16T10:25:36.085Z,86.57
2022-11-16T10:28:25.198Z,83.77
2022-11-16T10:31:28.904Z,81.26
2022-11-16T10:33:59.270Z,82.91
2022-11-16T10:36:32.748Z,86.15
2022-11-16T10:39:02.861Z,86.21
2022-11-16T10:41:48.962Z,86.10
2022-11-16T10:44:44.086Z,82.78
2022-11-16T10:47:47.277Z,84.73
2022-11-16T10:50:37.987Z,82.61
2022-11-16T10:53:06.879Z,85.17
2022-11-16T10:55:35.660Z,84.19
2022-11-16T10:58:06.872Z,82.41
2022-11-16T11:00:48.195Z,82.22
2022-11-16T11:07:37.979Z,79.24
2022-11-16T11:24:52.481Z,82.44
2022-11-16T11:27:27.255Z,83.30
2022-11-16T11:29:58.937Z,83.31
2022-11-16T11:32:39.691Z,84.08
2022-11-16T11:35:33.332Z,83.53
2022-11-16T11:38:07.981Z,84.24
2022-11-16T11:40:37.191Z,86.22
2022-11-16T11:43:06.619Z,86.35
2022-11-16T11:45:48.085Z,85.95
2022-11-16T11:48:48.101Z,85.55
2022-11-16T11:51:35.486Z,84.78
2022-11-16T11:54:08.067Z,84.88
2022-11-16T11:56:36.776Z,84.24
2022-11-16T11:59:05.636Z,83.45
2022-11-16T12:02:26.603Z,83.21
2022-11-16T12:05:10.560Z,82.47
2022-11-16T12:08:04.154Z,82.31
2022-11-16T12:10:41.628Z,81.92
2022-11-16T12:13:39.698Z,82.31
2022-11-16T12:16:42.211Z,81.46
2022-11-16T12:19:22.633Z,82.01
2022-11-16T12:22:15.784Z,81.89
2022-11-16T12:25:02.895Z,82.12
2022-11-16T12:32:51.386Z,81.58
2022-11-16T12:35:41.710Z,81.67
2022-11-16T12:38:51.335Z,82.59
2022-11-16T12:41:50.815Z,81.75
2022-11-16T12:44:57.464Z,81.68
2022-11-16T12:48:02.560Z,81.33
2022-11-16T12:51:10.154Z,81.07
2022-11-16T12:54:07.488Z,80.90
2022-11-16T12:57:07.372Z,80.11
2022-11-16T12:59:51.071Z,79.99
2022-11-16T13:03:02.670Z,79.64
2022-11-16T13:06:06.878Z,79.79
2022-11-16T13:09:02.235Z,82.02
2022-11-16T13:11:46.179Z,82.67
2022-11-16T13:14:25.372Z,79.33
2022-11-16T13:16:57.639Z,76.10
2022-11-16T13:19:28.056Z,74.26
2022-11-16T13:22:11.297Z,72.07
2022-11-16T13:24:55.855Z,71.04
2022-11-16T13:28:32.221Z,72.58
2022-11-16T13:31:27.902Z,69.89
2022-11-16T13:34:14.705Z,72.72
2022-11-16T13:36:45.622Z,69.92
2022-11-16T13:39:22.672Z,75.42
2022-11-16T13:42:07.877Z,76.14
2022-11-16T13:44:36.955Z,77.53
2022-11-16T13:47:25.966Z,75.48
2022-11-16T13:50:01.664Z,76.80
2022-11-16T13:53:46.283Z,77.96
2022-11-16T13:55:48.500Z,79.33
2022-11-16T13:58:23.019Z,81.74
2022-11-16T14:01:02.457Z,81.92
2022-11-16T14:03:38.766Z,81.96
2022-11-16T14:06:13.563Z,86.10
2022-11-16T14:08:57.106Z,85.83
2022-11-16T14:11:52.292Z,87.53
2022-11-16T14:15:16.386Z,87.80
2022-11-16T14:18:09.540Z,86.13
2022-11-16T14:20:38.744Z,89.56
2022-11-16T14:23:41.428Z,91.01
2022-11-16T14:26:15.968Z,93.81
2022-11-16T14:29:17.614Z,95.44
2022-11-16T14:32:03.487Z,95.95
2022-11-16T14:34:45.487Z,92.78
2022-11-16T14:37:42.722Z,92.09
2022-11-16T14:40:20.179Z,94.18
2022-11-16T14:43:21.740Z,96.27
2022-11-16T14:45:59.142Z,97.96
2022-11-16T14:48:28.615Z,96.73
2022-11-16T14:51:08.930Z,94.52
2022-11-16T14:53:46.517Z,97.00
2022-11-16T14:56:20.921Z,95.52
2022-11-16T14:59:01.496Z,93.56
2022-11-16T15:01:39.307Z,91.83
2022-11-16T15:04:11.847Z,93.68
2022-11-16T15:07:04.108Z,94.68
2022-11-16T15:09:54.058Z,97.30
2022-11-16T15:12:44.288Z,100.00
2022-11-16T15:15:13.232Z,100.00
2022-11-16T15:17:46.660Z,99.95
2022-11-16T15:20:20.071Z,99.93
2022-11-16T15:22:56.899Z,98.35
2022-11-16T15:25:37.368Z,96.52
2022-11-16T15:28:28.744Z,100.00
2022-11-16T15:31:04.896Z,100.00
2022-11-16T15:33:42.936Z,99.95
2022-11-16T15:36:39.742Z,95.96
2022-11-16T15:39:24.262Z,93.94
2022-11-16T15:41:57.582Z,97.04
2022-11-16T15:44:33.395Z,99.72
2022-11-16T15:47:03.567Z,96.68
2022-11-16T15:49:43.711Z,96.74
2022-11-16T15:52:12.535Z,96.54
2022-11-16T15:54:59.996Z,96.84
2022-11-16T15:57:28.936Z,99.38
2022-11-16T15:59:58.238Z,100.00
2022-11-16T16:02:31.900Z,98.91
2022-11-16T16:05:00.741Z,99.20
2022-11-16T16:07:44.043Z,98.94
2022-11-16T16:10:18.904Z,99.62
2022-11-16T16:12:55.999Z,99.76
2022-11-16T16:15:36.946Z,99.44
2022-11-16T16:18:40.050Z,100.00
2022-11-16T16:21:10.788Z,100.00
2022-11-16T16:23:52.039Z,100.00
2022-11-16T16:26:22.543Z,100.00
2022-11-16T16:28:52.308Z,100.00
2022-11-16T16:31:21.118Z,100.00
2022-11-16T16:33:50.629Z,100.00
2022-11-16T16:36:19.437Z,100.00
2022-11-16T16:38:48.341Z,100.00
2022-11-16T16:41:24.087Z,100.00
2022-11-16T16:43:53.694Z,100.00
2022-11-16T16:46:22.647Z,100.00
2022-11-16T16:48:51.343Z,100.00
2022-11-16T16:51:20.101Z,100.00
2022-11-16T16:53:49.167Z,100.00
2022-11-16T16:56:19.997Z,100.00
2022-11-16T16:58:49.001Z,100.00
2022-11-16T17:01:18.048Z,100.00
2022-11-16T17:03:47.205Z,100.00
2022-11-16T17:06:16.140Z,100.00
2022-11-16T17:08:45.062Z,100.00
2022-11-16T17:11:16.233Z,100.00
2022-11-16T17:13:45.073Z,100.00
2022-11-16T17:16:13.922Z,100.00
2022-11-16T17:18:44.713Z,100.00
2022-11-16T17:21:13.448Z,100.00
2022-11-16T17:23:42.185Z,100.00
2022-11-16T17:26:11.210Z,100.00
2022-11-16T17:28:40.991Z,100.00
2022-11-16T17:31:11.717Z,100.00
2022-11-16T17:33:43.203Z,100.00
2022-11-16T17:36:14.876Z,100.00
2022-11-16T17:38:44.160Z,100.00
2022-11-16T17:41:19.411Z,100.00
2022-11-16T17:43:51.842Z,100.00
2022-11-16T17:46:24.088Z,100.00
2022-11-16T17:48:52.961Z,100.00
2022-11-16T17:51:24.673Z,100.00
2022-11-16T17:53:53.470Z,100.00
2022-11-16T17:56:28.951Z,100.00
2022-11-16T17:59:00.802Z,100.00
2022-11-16T18:01:29.952Z,100.00
2022-11-16T18:04:01.403Z,100.00
2022-11-16T18:06:30.007Z,100.00
2022-11-16T18:08:58.769Z,100.00
2022-11-16T18:11:28.453Z,100.00
2022-11-16T18:14:05.882Z,100.00
2022-11-16T18:16:34.816Z,100.00
2022-11-16T18:19:06.407Z,100.00
2022-11-16T18:21:42.563Z,100.00
2022-11-16T18:24:12.444Z,100.00
2022-11-16T18:26:41.860Z,100.00
2022-11-16T18:29:18.855Z,100.00
2022-11-16T18:31:47.486Z,100.00
2022-11-16T18:34:16.371Z,100.00
2022-11-16T18:36:46.831Z,100.00
2022-11-16T18:39:15.617Z,100.00
2022-11-16T18:41:51.692Z,100.00
2022-11-16T18:44:23.848Z,100.00
2022-11-16T18:46:52.658Z,100.00
2022-11-16T18:49:21.528Z,100.00
2022-11-16T18:51:51.072Z,100.00
2022-11-16T18:54:19.736Z,100.00
2022-11-16T18:56:49.232Z,100.00
2022-11-16T18:59:18.015Z,100.00
2022-11-16T19:01:49.567Z,100.00
2022-11-16T19:04:18.432Z,100.00
2022-11-16T19:06:47.189Z,100.00
2022-11-16T19:09:15.830Z,100.00
2022-11-16T19:11:44.758Z,100.00
2022-11-16T19:14:14.054Z,100.00
2022-11-16T19:16:52.468Z,100.00
2022-11-16T19:19:25.534Z,100.00
2022-11-16T19:21:56.647Z,100.00
2022-11-16T19:24:25.409Z,100.00
2022-11-16T19:26:54.283Z,100.00
2022-11-16T19:29:22.993Z,100.00
2022-11-16T19:31:51.688Z,100.00
2022-11-16T19:34:20.377Z,100.00
2022-11-16T19:36:49.003Z,100.00
2022-11-16T19:39:17.664Z,100.00
2022-11-16T19:41:46.481Z,100.00
2022-11-16T19:44:15.103Z,100.00
2022-11-16T19:46:43.811Z,100.00
2022-11-16T19:49:19.556Z,100.00
2022-11-16T19:51:49.619Z,100.00
2022-11-16T19:54:18.641Z,100.00
2022-11-16T19:56:53.654Z,100.00
2022-11-16T19:59:24.587Z,100.00
2022-11-16T20:01:53.475Z,100.00
2022-11-16T20:04:22.158Z,100.00
2022-11-16T20:06:51.093Z,100.00
2022-11-16T20:09:20.365Z,100.00
2022-11-16T20:11:49.255Z,100.00
2022-11-16T20:14:18.291Z,100.00
2022-11-16T20:16:50.002Z,100.00
2022-11-16T20:19:20.003Z,100.00
2022-11-16T20:21:48.815Z,100.00
2022-11-16T20:24:18.358Z,100.00
2022-11-16T20:26:49.298Z,100.00
2022-11-16T20:29:19.394Z,100.00
2022-11-16T20:31:48.285Z,100.00
2022-11-16T20:34:17.942Z,100.00
2022-11-16T20:36:48.143Z,100.00
2022-11-16T20:39:20.230Z,100.00
2022-11-16T20:41:49.059Z,100.00
2022-11-16T20:44:22.462Z,100.00
2022-11-16T20:46:54.733Z,100.00
2022-11-16T20:49:24.232Z,100.00
2022-11-16T20:51:53.061Z,100.00
2022-11-16T20:54:22.014Z,100.00
2022-11-16T20:56:51.213Z,100.00
2022-11-16T20:59:20.210Z,100.00
2022-11-16T21:01:52.756Z,100.00
2022-11-16T21:04:22.086Z,100.00
2022-11-16T21:06:50.909Z,100.00
2022-11-16T21:09:23.009Z,100.00
2022-11-16T21:12:10.564Z,100.00
2022-11-16T21:14:39.454Z,100.00
2022-11-16T21:17:08.361Z,100.00
2022-11-16T21:19:37.250Z,100.00
2022-11-16T21:22:06.044Z,100.00
2022-11-16T21:24:35.124Z,100.00
2022-11-16T21:27:03.911Z,100.00
2022-11-16T21:29:32.805Z,100.00
2022-11-16T21:32:02.724Z,100.00
2022-11-16T21:34:34.637Z,100.00
2022-11-16T21:37:06.180Z,100.00
2022-11-16T21:39:34.822Z,100.00
2022-11-16T21:42:04.033Z,100.00
2022-11-16T21:44:42.437Z,100.00
2022-11-16T21:47:12.202Z,100.00
2022-11-16T21:50:00.876Z,100.00
2022-11-16T21:52:30.112Z,100.00
2022-11-16T21:55:01.775Z,100.00
2022-11-16T21:57:30.547Z,100.00
2022-11-16T22:00:01.286Z,100.00
2022-11-16T22:02:40.533Z,100.00
2022-11-16T22:05:28.454Z,100.00
2022-11-16T22:07:57.593Z,100.00
2022-11-16T22:10:26.454Z,100.00
2022-11-16T22:12:55.255Z,100.00
2022-11-16T22:15:24.022Z,100.00
2022-11-16T22:17:52.818Z,100.00
2022-11-16T22:20:22.363Z,100.00
2022-11-16T22:22:51.121Z,100.00
2022-11-16T22:25:20.129Z,100.00
2022-11-16T22:28:18.555Z,100.00
2022-11-16T22:30:38.493Z,100.00
2022-11-16T22:33:07.174Z,100.00
2022-11-16T22:35:38.705Z,100.00
2022-11-16T22:38:07.493Z,100.00
2022-11-16T22:40:36.284Z,100.00
2022-11-16T22:43:05.073Z,100.00
2022-11-16T22:45:33.885Z,100.00
2022-11-16T22:48:02.651Z,100.00
2022-11-16T22:50:31.548Z,100.00
2022-11-16T22:53:00.453Z,100.00
2022-11-16T22:55:29.340Z,100.00
2022-11-16T22:57:58.128Z,100.00
2022-11-16T23:00:27.016Z,100.00
2022-11-16T23:02:56.140Z,100.00
2022-11-16T23:05:25.215Z,100.00
2022-11-16T23:07:57.170Z,100.00
2022-11-16T23:10:25.863Z,100.00
2022-11-16T23:13:13.189Z,100.00
2022-11-16T23:15:50.772Z,100.00
2022-11-16T23:18:20.026Z,100.00
2022-11-16T23:21:44.780Z,100.00
2022-11-16T23:24:34.256Z,100.00
2022-11-16T23:27:23.011Z,100.00
2022-11-16T23:29:53.847Z,100.00
2022-11-16T23:32:22.738Z,100.00
2022-11-16T23:34:51.622Z,100.00
2022-11-16T23:37:20.722Z,100.00
2022-11-16T23:39:50.324Z,100.00
2022-11-16T23:42:37.858Z,100.00
2022-11-16T23:45:07.645Z,100.00
2022-11-16T23:47:36.361Z,100.00
2022-11-16T23:50:06.116Z,100.00
2022-11-16T23:52:34.873Z,100.00
2022-11-16T23:55:04.265Z,100.00
2022-11-16T23:57:33.054Z,100.00
